createdAt,value
2022-10-28T00:01:13.864Z,9.68
2022-10-28T00:03:55.248Z,8.32
2022-10-28T00:06:25.604Z,7.25
2022-10-28T00:08:53.494Z,8.93
2022-10-28T00:11:23.836Z,8.77
2022-10-28T00:13:54.186Z,10.63
2022-10-28T00:16:27.079Z,9.27
2022-10-28T00:18:55.143Z,8.60
2022-10-28T00:21:25.867Z,9.10
2022-10-28T00:23:53.423Z,9.93
2022-10-28T00:26:24.270Z,9.48
2022-10-28T00:29:02.610Z,9.63
2022-10-28T00:31:31.838Z,10.85
2022-10-28T00:34:00.986Z,10.40
2022-10-28T00:36:31.737Z,8.63
2022-10-28T00:39:00.176Z,9.40
2022-10-28T00:41:31.420Z,9.30
2022-10-28T00:44:05.023Z,8.30
2022-10-28T00:46:42.042Z,9.27
2022-10-28T00:49:17.815Z,8.43
2022-10-28T00:51:49.566Z,8.40
2022-10-28T00:54:18.673Z,10.00
2022-10-28T00:56:49.664Z,9.50
2022-10-28T00:59:23.821Z,9.13
2022-10-28T01:01:51.497Z,7.63
2022-10-28T01:04:19.690Z,8.98
2022-10-28T01:06:48.957Z,9.63
2022-10-28T01:09:16.455Z,8.63
2022-10-28T01:12:06.179Z,7.57
2022-10-28T01:15:01.265Z,9.15
2022-10-28T01:17:33.135Z,8.63
2022-10-28T01:20:12.663Z,9.02
2022-10-28T01:22:52.301Z,9.45
2022-10-28T01:25:32.162Z,10.18
2022-10-28T01:28:17.939Z,10.18
2022-10-28T01:31:15.658Z,9.10
2022-10-28T01:34:00.058Z,9.52
2022-10-28T01:36:33.384Z,10.10
2022-10-28T01:39:20.813Z,9.07
2022-10-28T01:42:06.176Z,9.10
2022-10-28T01:45:01.389Z,9.45
2022-10-28T01:47:50.351Z,8.48
2022-10-28T01:50:29.333Z,9.85
2022-10-28T01:53:01.173Z,9.15
2022-10-28T01:55:33.474Z,9.52
2022-10-28T02:00:30.982Z,9.93
2022-10-28T02:02:58.674Z,9.27
2022-10-28T02:05:46.178Z,9.65
2022-10-28T02:08:23.302Z,8.35
2022-10-28T02:11:03.009Z,11.75
2022-10-28T02:13:42.801Z,10.75
2022-10-28T02:16:32.878Z,9.45
2022-10-28T02:19:09.877Z,11.07
2022-10-28T02:21:50.615Z,10.27
2022-10-28T02:24:34.210Z,9.65
2022-10-28T02:27:11.386Z,10.55
2022-10-28T02:29:46.481Z,10.15
2022-10-28T02:32:20.748Z,10.48
2022-10-28T02:34:53.649Z,11.32
2022-10-28T02:37:30.605Z,11.50
2022-10-28T02:40:02.669Z,10.32
2022-10-28T02:42:35.949Z,10.05
2022-10-28T02:45:14.575Z,9.43
2022-10-28T02:47:47.855Z,8.98
2022-10-28T02:50:18.879Z,9.82
2022-10-28T02:52:51.173Z,9.77
2022-10-28T02:55:21.774Z,8.85
2022-10-28T02:57:49.941Z,9.75
2022-10-28T03:00:24.570Z,9.80
2022-10-28T03:02:52.440Z,10.05
2022-10-28T03:05:20.729Z,10.63
2022-10-28T03:07:48.197Z,9.35
2022-10-28T03:10:15.815Z,9.10
2022-10-28T03:12:43.256Z,12.02
2022-10-28T03:15:11.153Z,9.95
2022-10-28T03:17:38.603Z,11.38
2022-10-28T03:20:06.557Z,10.48
2022-10-28T03:22:34.125Z,9.75
2022-10-28T03:25:01.562Z,13.10
2022-10-28T03:27:29.069Z,9.50
2022-10-28T03:29:56.517Z,9.73
2022-10-28T03:32:23.971Z,10.50
2022-10-28T03:34:51.450Z,9.65
2022-10-28T03:37:18.922Z,10.00
2022-10-28T03:39:46.385Z,9.73
2022-10-28T03:42:13.964Z,8.52
2022-10-28T03:44:41.401Z,9.48
2022-10-28T03:47:09.097Z,9.13
2022-10-28T03:49:36.557Z,9.80
2022-10-28T03:52:04.065Z,9.27
2022-10-28T03:54:31.538Z,8.30
2022-10-28T03:56:58.991Z,8.65
2022-10-28T03:59:26.433Z,9.05
2022-10-28T04:01:54.022Z,8.95
2022-10-28T04:04:21.587Z,10.50
2022-10-28T04:06:49.004Z,9.10
2022-10-28T04:09:16.438Z,9.63
2022-10-28T04:11:43.886Z,10.40
2022-10-28T04:14:11.334Z,8.95
2022-10-28T04:16:38.764Z,9.93
2022-10-28T04:19:06.214Z,9.13
2022-10-28T04:21:33.711Z,8.85
2022-10-28T04:24:01.141Z,10.93
2022-10-28T04:26:30.628Z,8.85
2022-10-28T04:28:58.324Z,9.55
2022-10-28T04:31:25.773Z,9.65
2022-10-28T04:33:53.239Z,8.98
2022-10-28T04:36:20.706Z,9.05
2022-10-28T04:38:48.189Z,10.27
2022-10-28T04:41:16.018Z,9.95
2022-10-28T04:43:43.468Z,10.23
2022-10-28T04:46:11.218Z,10.13
2022-10-28T04:48:38.648Z,12.93
2022-10-28T04:51:06.339Z,10.40
2022-10-28T04:53:33.794Z,9.68
2022-10-28T04:56:01.336Z,8.80
2022-10-28T04:58:28.811Z,9.38
2022-10-28T05:00:56.341Z,8.93
2022-10-28T05:03:23.825Z,10.75
2022-10-28T05:05:51.494Z,9.30
2022-10-28T05:08:18.966Z,8.35
2022-10-28T05:10:49.966Z,11.25
2022-10-28T05:13:18.315Z,8.93
2022-10-28T05:15:46.284Z,8.00
2022-10-28T05:18:13.779Z,8.43
2022-10-28T05:20:41.530Z,7.13
2022-10-28T05:23:09.007Z,8.35
2022-10-28T05:25:36.737Z,8.32
2022-10-28T05:28:04.251Z,6.80
2022-10-28T05:30:31.708Z,7.85
2022-10-28T05:33:03.014Z,8.20
2022-10-28T05:35:31.307Z,6.87
2022-10-28T05:37:59.138Z,5.85
2022-10-28T05:40:26.858Z,7.78
2022-10-28T05:42:54.629Z,6.75
2022-10-28T05:45:22.347Z,6.60
2022-10-28T05:47:50.081Z,5.90
2022-10-28T05:50:20.461Z,5.82
2022-10-28T05:52:49.812Z,7.28
2022-10-28T05:55:19.534Z,6.22
2022-10-28T05:57:48.432Z,6.07
2022-10-28T06:00:17.261Z,6.93
2022-10-28T06:02:44.743Z,6.60
2022-10-28T06:05:12.728Z,6.47
2022-10-28T06:07:41.830Z,7.80
2022-10-28T06:10:11.154Z,6.68
2022-10-28T06:12:37.459Z,6.00
2022-10-28T06:15:05.359Z,6.88
2022-10-28T06:17:32.849Z,7.28
2022-10-28T06:20:00.313Z,5.97
2022-10-28T06:22:27.838Z,6.70
2022-10-28T06:24:55.305Z,6.68
2022-10-28T06:27:22.736Z,5.35
2022-10-28T06:29:50.199Z,6.38
2022-10-28T06:32:18.815Z,6.43
2022-10-28T06:34:46.946Z,6.43
2022-10-28T06:37:14.510Z,7.13
2022-10-28T06:39:42.950Z,5.93
2022-10-28T06:42:10.400Z,7.90
2022-10-28T06:44:37.903Z,6.03
2022-10-28T06:47:06.911Z,6.50
2022-10-28T06:49:34.401Z,5.82
2022-10-28T06:52:02.008Z,5.18
2022-10-28T06:54:29.459Z,5.65
2022-10-28T06:56:56.971Z,5.88
2022-10-28T06:59:24.517Z,5.70
2022-10-28T07:01:52.149Z,5.75
2022-10-28T07:04:19.722Z,5.72
2022-10-28T07:06:49.858Z,5.15
2022-10-28T07:11:54.861Z,6.07
2022-10-28T07:14:23.065Z,6.45
2022-10-28T07:16:50.531Z,4.82
2022-10-28T07:19:20.346Z,6.00
2022-10-28T07:21:50.008Z,5.30
2022-10-28T07:24:17.620Z,4.45
2022-10-28T07:26:45.197Z,6.10
2022-10-28T07:29:12.698Z,5.22
2022-10-28T07:31:40.212Z,4.43
2022-10-28T07:34:07.853Z,5.80
2022-10-28T07:36:35.336Z,4.70
2022-10-28T07:39:02.988Z,5.82
2022-10-28T07:41:30.488Z,7.70
2022-10-28T07:43:58.011Z,5.75
2022-10-28T07:46:25.503Z,5.65
2022-10-28T07:48:52.951Z,4.55
2022-10-28T07:51:20.430Z,4.95
2022-10-28T07:53:47.908Z,4.50
2022-10-28T07:56:15.399Z,4.38
2022-10-28T07:58:44.687Z,3.67
2022-10-28T08:01:14.274Z,3.90
2022-10-28T08:03:42.303Z,5.85
2022-10-28T08:06:12.549Z,4.18
2022-10-28T08:08:40.885Z,4.10
2022-10-28T08:11:20.146Z,5.22
2022-10-28T08:13:48.198Z,4.45
2022-10-28T08:16:15.695Z,3.60
2022-10-28T08:18:43.489Z,3.92
2022-10-28T08:21:12.488Z,4.55
2022-10-28T08:23:41.386Z,3.58
2022-10-28T08:26:09.362Z,5.65
2022-10-28T08:28:36.833Z,3.22
2022-10-28T08:31:09.427Z,4.25
2022-10-28T08:33:38.942Z,3.28
2022-10-28T08:36:07.899Z,4.38
2022-10-28T08:38:35.361Z,3.78
2022-10-28T08:41:25.700Z,4.15
2022-10-28T08:44:11.601Z,3.67
2022-10-28T08:47:01.567Z,5.20
2022-10-28T08:49:33.163Z,3.22
2022-10-28T08:52:10.770Z,4.53
2022-10-28T08:54:47.309Z,4.50
2022-10-28T08:57:21.536Z,3.85
2022-10-28T08:59:52.949Z,4.03
2022-10-28T09:02:34.160Z,4.00
2022-10-28T09:05:28.472Z,4.72
2022-10-28T09:07:57.496Z,4.47
2022-10-28T09:10:51.153Z,4.25
2022-10-28T09:13:48.650Z,3.95
2022-10-28T09:16:41.106Z,4.53
2022-10-28T09:21:51.987Z,3.92
2022-10-28T09:24:32.493Z,5.00
2022-10-28T09:27:27.078Z,3.60
2022-10-28T09:30:06.600Z,3.55
2022-10-28T09:32:56.411Z,4.72
2022-10-28T09:35:27.663Z,4.00
2022-10-28T09:38:08.633Z,3.47
2022-10-28T09:40:37.647Z,3.60
2022-10-28T09:43:21.490Z,4.93
2022-10-28T09:45:53.039Z,6.57
2022-10-28T09:48:22.703Z,4.47
2022-10-28T09:50:53.287Z,4.78
2022-10-28T09:53:38.737Z,3.30
2022-10-28T09:58:45.014Z,3.53
2022-10-28T10:01:12.631Z,4.15
2022-10-28T10:03:41.799Z,3.17
2022-10-28T10:06:15.279Z,3.05
2022-10-28T10:08:43.043Z,3.67
2022-10-28T10:11:25.779Z,3.67
2022-10-28T10:13:53.800Z,3.60
2022-10-28T10:16:44.483Z,4.05
2022-10-28T10:19:12.196Z,4.45
2022-10-28T10:21:59.923Z,4.43
2022-10-28T10:24:30.446Z,3.85
2022-10-28T10:27:01.574Z,4.20
2022-10-28T10:29:30.355Z,4.03
2022-10-28T10:32:19.757Z,3.33
2022-10-28T10:34:55.454Z,4.38
2022-10-28T10:37:23.992Z,3.08
2022-10-28T10:40:02.818Z,3.30
2022-10-28T10:42:30.351Z,3.55
2022-10-28T10:45:17.145Z,4.35
2022-10-28T10:47:44.591Z,3.08
2022-10-28T10:50:33.253Z,2.65
2022-10-28T10:53:02.446Z,2.83
2022-10-28T10:55:41.546Z,3.30
2022-10-28T10:58:19.287Z,3.70
2022-10-28T11:00:50.229Z,2.95
2022-10-28T11:03:32.040Z,3.53
2022-10-28T11:08:49.854Z,3.60
2022-10-28T11:11:22.709Z,2.83
2022-10-28T11:14:03.189Z,3.03
2022-10-28T11:16:30.757Z,3.92
2022-10-28T11:18:58.313Z,2.78
2022-10-28T11:21:51.549Z,5.50
2022-10-28T11:24:40.085Z,2.63
2022-10-28T11:27:35.411Z,3.42
2022-10-28T11:30:05.521Z,2.78
2022-10-28T11:32:54.460Z,3.63
2022-10-28T11:36:11.500Z,2.95
2022-10-28T11:38:58.885Z,2.63
2022-10-28T11:41:38.280Z,3.25
2022-10-28T11:44:20.029Z,2.80
2022-10-28T11:47:00.859Z,3.38
2022-10-28T11:49:59.079Z,2.70
2022-10-28T11:52:35.847Z,2.78
2022-10-28T11:55:19.256Z,2.40
2022-10-28T11:57:57.483Z,2.83
2022-10-28T12:00:40.185Z,3.88
2022-10-28T12:03:30.832Z,4.28
2022-10-28T12:06:08.665Z,2.65
2022-10-28T12:09:12.962Z,2.45
2022-10-28T12:12:07.169Z,2.55
2022-10-28T12:15:02.405Z,2.53
2022-10-28T12:17:41.764Z,3.42
2022-10-28T12:20:25.222Z,2.65
2022-10-28T12:22:57.338Z,2.38
2022-10-28T12:25:35.391Z,3.22
2022-10-28T12:28:08.012Z,2.53
2022-10-28T12:30:41.291Z,4.00
2022-10-28T12:33:18.568Z,2.83
2022-10-28T12:35:55.376Z,3.90
2022-10-28T12:38:55.074Z,2.78
2022-10-28T12:41:27.339Z,2.72
2022-10-28T12:44:05.688Z,2.67
2022-10-28T12:47:07.873Z,3.33
2022-10-28T12:49:57.985Z,3.10
2022-10-28T12:52:31.125Z,3.40
2022-10-28T12:55:08.352Z,2.40
2022-10-28T12:57:38.564Z,3.60
2022-10-28T13:00:18.910Z,4.20
2022-10-28T13:03:02.944Z,3.13
2022-10-28T13:05:47.130Z,2.78
2022-10-28T13:09:05.141Z,3.22
2022-10-28T13:11:53.840Z,3.58
2022-10-28T13:14:53.345Z,3.20
2022-10-28T13:17:27.037Z,3.70
2022-10-28T13:20:16.917Z,2.83
2022-10-28T13:23:09.396Z,3.22
2022-10-28T13:26:06.406Z,3.35
2022-10-28T13:29:01.914Z,2.97
2022-10-28T13:31:47.462Z,2.65
2022-10-28T13:34:17.624Z,2.28
2022-10-28T13:36:51.240Z,3.80
2022-10-28T13:39:23.702Z,3.85
2022-10-28T13:42:13.778Z,2.70
2022-10-28T13:44:55.416Z,3.22
2022-10-28T13:47:35.000Z,2.53
2022-10-28T13:50:08.748Z,4.60
2022-10-28T13:52:47.578Z,4.03
2022-10-28T13:55:15.104Z,3.13
2022-10-28T13:57:48.549Z,3.03
2022-10-28T14:00:20.067Z,2.60
2022-10-28T14:02:50.181Z,3.03
2022-10-28T14:05:20.154Z,3.30
2022-10-28T14:08:00.139Z,2.80
2022-10-28T14:10:32.042Z,3.42
2022-10-28T14:13:08.600Z,3.03
2022-10-28T14:15:41.004Z,2.55
2022-10-28T14:18:42.870Z,3.45
2022-10-28T14:21:11.141Z,3.47
2022-10-28T14:23:41.529Z,2.78
2022-10-28T14:26:09.276Z,2.67
2022-10-28T14:28:36.688Z,3.13
2022-10-28T14:31:10.380Z,2.80
2022-10-28T14:33:43.833Z,3.10
2022-10-28T14:36:20.468Z,2.95
2022-10-28T14:39:25.723Z,2.72
2022-10-28T14:42:02.521Z,2.47
2022-10-28T14:44:43.296Z,2.28
2022-10-28T14:47:28.776Z,2.58
2022-10-28T14:50:17.516Z,2.38
2022-10-28T14:52:47.328Z,3.90
2022-10-28T14:55:25.159Z,3.08
2022-10-28T14:57:53.297Z,2.67
2022-10-28T15:00:23.269Z,2.85
2022-10-28T15:02:51.801Z,2.03
2022-10-28T15:05:24.097Z,2.15
2022-10-28T15:07:52.567Z,2.05
2022-10-28T15:10:28.265Z,2.17
2022-10-28T15:12:58.193Z,2.72
2022-10-28T15:15:31.184Z,1.65
2022-10-28T15:18:00.364Z,2.03
2022-10-28T15:20:35.481Z,3.25
2022-10-28T15:23:13.477Z,1.85
2022-10-28T15:25:40.994Z,2.10
2022-10-28T15:28:12.484Z,1.70
2022-10-28T15:30:46.685Z,1.90
2022-10-28T15:33:30.156Z,1.90
2022-10-28T15:36:17.848Z,1.65
2022-10-28T15:39:05.374Z,2.85
2022-10-28T15:41:45.012Z,2.25
2022-10-28T15:44:29.720Z,2.17
2022-10-28T15:46:58.406Z,2.65
2022-10-28T15:49:37.075Z,2.22
2022-10-28T15:52:19.660Z,2.55
2022-10-28T15:54:57.816Z,2.58
2022-10-28T15:57:47.052Z,1.85
2022-10-28T16:00:30.934Z,2.03
2022-10-28T16:03:05.263Z,2.00
2022-10-28T16:05:32.932Z,2.97
2022-10-28T16:08:06.652Z,2.58
2022-10-28T16:10:44.895Z,2.50
2022-10-28T16:13:23.582Z,2.03
2022-10-28T16:16:03.943Z,2.78
2022-10-28T16:18:33.647Z,2.45
2022-10-28T16:21:02.228Z,2.65
2022-10-28T16:23:35.840Z,2.85
2022-10-28T16:26:03.485Z,2.47
2022-10-28T16:28:32.740Z,3.22
2022-10-28T16:31:01.788Z,2.42
2022-10-28T16:33:33.430Z,2.00
2022-10-28T16:36:02.492Z,2.70
2022-10-28T16:38:31.918Z,3.22
2022-10-28T16:41:01.292Z,2.95
2022-10-28T16:43:30.315Z,2.85
2022-10-28T16:46:00.548Z,3.03
2022-10-28T16:48:30.257Z,3.35
2022-10-28T16:51:01.467Z,2.55
2022-10-28T16:53:29.433Z,2.10
2022-10-28T16:55:59.064Z,2.78
2022-10-28T16:58:28.335Z,5.07
2022-10-28T17:00:56.879Z,3.70
2022-10-28T17:03:24.391Z,3.30
2022-10-28T17:05:52.041Z,2.40
2022-10-28T17:08:36.107Z,2.65
2022-10-28T17:11:07.164Z,3.60
2022-10-28T17:13:35.103Z,4.32
2022-10-28T17:16:02.569Z,3.88
2022-10-28T17:18:30.039Z,5.18
2022-10-28T17:21:01.851Z,4.93
2022-10-28T17:23:30.213Z,5.65
2022-10-28T17:26:02.813Z,4.80
2022-10-28T17:28:30.471Z,3.97
2022-10-28T17:31:05.846Z,5.13
2022-10-28T17:33:33.482Z,4.15
2022-10-28T17:36:06.162Z,3.50
2022-10-28T17:38:33.678Z,4.32
2022-10-28T17:41:01.588Z,3.95
2022-10-28T17:43:29.096Z,3.47
2022-10-28T17:46:07.281Z,3.95
2022-10-28T17:48:35.408Z,4.03
2022-10-28T17:51:02.914Z,3.70
2022-10-28T17:53:30.527Z,5.65
2022-10-28T17:55:59.113Z,4.93
2022-10-28T17:58:26.806Z,4.03
2022-10-28T18:01:01.984Z,4.75
2022-10-28T18:03:32.837Z,3.95
2022-10-28T18:06:04.847Z,4.32
2022-10-28T18:08:37.250Z,5.10
2022-10-28T18:11:06.619Z,5.50
2022-10-28T18:13:36.341Z,5.38
2022-10-28T18:16:09.184Z,4.45
2022-10-28T18:18:41.093Z,5.82
2022-10-28T18:21:11.063Z,4.65
2022-10-28T18:23:39.174Z,5.25
2022-10-28T18:26:09.335Z,6.10
2022-10-28T18:28:38.045Z,4.40
2022-10-28T18:31:08.341Z,6.65
2022-10-28T18:33:36.620Z,6.70
2022-10-28T18:36:06.640Z,5.00
2022-10-28T18:38:34.981Z,6.03
2022-10-28T18:41:02.409Z,6.72
2022-10-28T18:43:29.918Z,5.88
2022-10-28T18:46:02.194Z,4.78
2022-10-28T18:48:30.942Z,5.97
2022-10-28T18:51:00.231Z,6.22
2022-10-28T18:53:28.249Z,5.05
2022-10-28T18:56:01.078Z,7.43
2022-10-28T18:58:28.851Z,6.13
2022-10-28T19:01:14.153Z,6.90
2022-10-28T19:03:42.410Z,4.25
2022-10-28T19:06:14.675Z,3.75
2022-10-28T19:08:43.784Z,3.58
2022-10-28T19:11:13.457Z,2.60
2022-10-28T19:13:42.569Z,4.40
2022-10-28T19:16:10.320Z,2.83
2022-10-28T19:18:41.115Z,2.60
2022-10-28T19:21:13.222Z,2.85
2022-10-28T19:23:41.686Z,4.57
2022-10-28T19:26:10.708Z,2.95
2022-10-28T19:28:45.781Z,3.88
2022-10-28T19:31:15.950Z,3.70
2022-10-28T19:33:45.216Z,3.53
2022-10-28T19:36:12.808Z,2.72
2022-10-28T19:38:40.249Z,3.42
2022-10-28T19:41:14.233Z,4.55
2022-10-28T19:43:41.938Z,3.15
2022-10-28T19:46:19.415Z,2.40
2022-10-28T19:48:49.668Z,2.72
2022-10-28T19:51:23.138Z,2.78
2022-10-28T19:53:55.685Z,2.00
2022-10-28T19:56:23.574Z,2.72
2022-10-28T19:58:56.004Z,3.10
2022-10-28T20:01:25.638Z,2.67
2022-10-28T20:03:54.784Z,4.32
2022-10-28T20:06:24.853Z,3.78
2022-10-28T20:08:52.352Z,2.17
2022-10-28T20:11:25.895Z,2.90
2022-10-28T20:13:56.407Z,2.22
2022-10-28T20:16:25.132Z,4.25
2022-10-28T20:18:54.555Z,2.35
2022-10-28T20:21:23.566Z,3.45
2022-10-28T20:23:54.548Z,2.72
2022-10-28T20:26:27.829Z,3.07
2022-10-28T20:28:56.068Z,2.80
2022-10-28T20:31:26.516Z,4.40
2022-10-28T20:33:58.672Z,2.22
2022-10-28T20:36:28.986Z,3.65
2022-10-28T20:39:17.587Z,2.95
2022-10-28T20:41:47.271Z,4.38
2022-10-28T20:44:14.970Z,4.63
2022-10-28T20:46:42.748Z,3.00
2022-10-28T20:49:10.542Z,3.25
2022-10-28T20:51:38.296Z,2.67
2022-10-28T20:54:05.982Z,3.00
2022-10-28T20:56:36.268Z,2.53
2022-10-28T20:59:04.424Z,3.80
2022-10-28T21:01:34.517Z,3.20
2022-10-28T21:04:08.160Z,2.75
2022-10-28T21:06:36.781Z,2.92
2022-10-28T21:09:05.074Z,4.18
2022-10-28T21:11:32.611Z,3.25
2022-10-28T21:14:02.239Z,4.53
2022-10-28T21:16:31.241Z,3.20
2022-10-28T21:19:00.108Z,5.75
2022-10-28T21:21:28.679Z,4.55
2022-10-28T21:23:56.242Z,4.43
2022-10-28T21:26:23.893Z,4.60
2022-10-28T21:28:52.758Z,3.40
2022-10-28T21:31:21.514Z,4.07
2022-10-28T21:36:20.949Z,4.53
2022-10-28T21:38:48.471Z,3.70
2022-10-28T21:41:18.815Z,4.72
2022-10-28T21:43:48.673Z,4.78
2022-10-28T21:46:17.912Z,5.40
2022-10-28T21:48:46.271Z,4.72
2022-10-28T21:51:17.085Z,4.07
2022-10-28T21:53:46.028Z,4.85
2022-10-28T21:56:18.253Z,5.40
2022-10-28T21:58:48.052Z,3.30
2022-10-28T22:01:24.076Z,4.57
2022-10-28T22:03:53.129Z,5.43
2022-10-28T22:06:20.961Z,4.53
2022-10-28T22:08:48.662Z,5.63
2022-10-28T22:11:21.387Z,4.78
2022-10-28T22:13:50.016Z,6.07
2022-10-28T22:16:19.705Z,5.35
2022-10-28T22:18:47.332Z,4.85
2022-10-28T22:21:20.972Z,4.95
2022-10-28T22:23:48.745Z,6.10
2022-10-28T22:26:19.005Z,5.30
2022-10-28T22:28:46.521Z,4.95
2022-10-28T22:31:16.323Z,5.13
2022-10-28T22:33:44.137Z,5.57
2022-10-28T22:36:16.992Z,3.97
2022-10-28T22:38:45.128Z,5.15
2022-10-28T22:41:14.186Z,7.90
2022-10-28T22:43:43.516Z,4.53
2022-10-28T22:46:12.124Z,6.20
2022-10-28T22:48:39.780Z,6.93
2022-10-28T22:51:07.269Z,5.88
2022-10-28T22:53:35.088Z,4.90
2022-10-28T22:56:02.656Z,5.10
2022-10-28T22:58:30.130Z,5.72
2022-10-28T23:01:15.613Z,7.35
2022-10-28T23:03:45.691Z,6.15
2022-10-28T23:06:15.511Z,6.78
2022-10-28T23:08:44.741Z,6.80
2022-10-28T23:11:13.028Z,5.28
2022-10-28T23:13:40.692Z,4.80
2022-10-28T23:16:10.290Z,5.15
2022-10-28T23:18:38.109Z,4.97
2022-10-28T23:21:07.496Z,4.00
2022-10-28T23:23:34.980Z,4.50
2022-10-28T23:26:02.472Z,6.20
2022-10-28T23:28:30.242Z,4.72
2022-10-28T23:31:04.172Z,3.83
2022-10-28T23:33:32.587Z,4.38
2022-10-28T23:36:02.015Z,5.05
2022-10-28T23:38:29.483Z,4.35
2022-10-28T23:41:05.368Z,4.10
2022-10-28T23:43:33.555Z,5.18
2022-10-28T23:46:01.906Z,4.78
2022-10-28T23:48:29.970Z,5.88
2022-10-28T23:50:57.915Z,7.25
2022-10-28T23:53:25.606Z,7.18
2022-10-28T23:55:53.716Z,8.48
2022-10-28T23:58:22.790Z,5.05
